sensor_id;sensor_type;location;lat;lon;timestamp;P1;durP1;ratioP1;P2;durP2;ratioP2
5237;SDS011;2639;49.700;7.962;2022-07-29T03:19:44;6.63;;;5.37;;
5237;SDS011;2639;49.700;7.962;2022-07-29T03:23:01;8.17;;;7.37;;
5237;SDS011;2639;49.700;7.962;2022-07-29T03:26:11;9.60;;;8.67;;
5237;SDS011;2639;49.700;7.962;2022-07-29T03:29:24;12.13;;;8.27;;
5237;SDS011;2639;49.700;7.962;2022-07-29T03:32:41;7.10;;;6.17;;
5237;SDS011;2639;49.700;7.962;2022-07-29T03:36:06;8.00;;;7.33;;
5237;SDS011;2639;49.700;7.962;2022-07-29T03:39:17;5.97;;;5.47;;
5237;SDS011;2639;49.700;7.962;2022-07-29T03:42:34;7.73;;;7.03;;
5237;SDS011;2639;49.700;7.962;2022-07-29T03:45:49;5.97;;;5.47;;
5237;SDS011;2639;49.700;7.962;2022-07-29T03:49:02;6.07;;;5.50;;
5237;SDS011;2639;49.700;7.962;2022-07-29T03:52:20;8.53;;;7.73;;
5237;SDS011;2639;49.700;7.962;2022-07-29T03:55:32;8.23;;;7.50;;
5237;SDS011;2639;49.700;7.962;2022-07-29T03:58:46;6.53;;;5.93;;
5237;SDS011;2639;49.700;7.962;2022-07-29T04:02:04;7.43;;;6.70;;
5237;SDS011;2639;49.700;7.962;2022-07-29T04:05:17;6.20;;;5.70;;
5237;SDS011;2639;49.700;7.962;2022-07-29T04:08:29;7.40;;;6.53;;
5237;SDS011;2639;49.700;7.962;2022-07-29T04:11:39;7.60;;;7.00;;
5237;SDS011;2639;49.700;7.962;2022-07-29T04:15:10;5.83;;;5.33;;
5237;SDS011;2639;49.700;7.962;2022-07-29T04:18:20;5.10;;;4.73;;
5237;SDS011;2639;49.700;7.962;2022-07-29T04:21:29;5.77;;;5.27;;
5237;SDS011;2639;49.700;7.962;2022-07-29T04:24:40;6.40;;;5.80;;
5237;SDS011;2639;49.700;7.962;2022-07-29T04:27:51;5.23;;;4.83;;
5237;SDS011;2639;49.700;7.962;2022-07-29T04:31:11;7.00;;;6.37;;
5237;SDS011;2639;49.700;7.962;2022-07-29T04:34:21;5.40;;;4.90;;
5237;SDS011;2639;49.700;7.962;2022-07-29T04:37:35;7.33;;;6.60;;
5237;SDS011;2639;49.700;7.962;2022-07-29T04:40:46;7.53;;;6.63;;
5237;SDS011;2639;49.700;7.962;2022-07-29T04:43:57;8.87;;;7.83;;
5237;SDS011;2639;49.700;7.962;2022-07-29T04:47:08;8.43;;;7.63;;
5237;SDS011;2639;49.700;7.962;2022-07-29T04:50:18;4.80;;;4.40;;
5237;SDS011;2639;49.700;7.962;2022-07-29T04:53:30;5.80;;;5.27;;
5237;SDS011;2639;49.700;7.962;2022-07-29T04:56:41;6.70;;;6.10;;
5237;SDS011;2639;49.700;7.962;2022-07-29T04:59:58;6.10;;;5.60;;
5237;SDS011;2639;49.700;7.962;2022-07-29T05:14:05;7.77;;;6.17;;
5237;SDS011;2639;49.700;7.962;2022-07-29T05:17:15;6.37;;;5.00;;
5237;SDS011;2639;49.700;7.962;2022-07-29T05:20:27;6.73;;;5.80;;
5237;SDS011;2639;49.700;7.962;2022-07-29T05:23:39;7.73;;;5.67;;
5237;SDS011;2639;49.700;7.962;2022-07-29T05:26:51;9.67;;;5.70;;
5237;SDS011;2639;49.700;7.962;2022-07-29T05:30:02;8.13;;;6.87;;
5237;SDS011;2639;49.700;7.962;2022-07-29T05:33:12;5.60;;;5.00;;
5237;SDS011;2639;49.700;7.962;2022-07-29T05:36:41;7.90;;;6.60;;
5237;SDS011;2639;49.700;7.962;2022-07-29T05:39:53;8.97;;;6.73;;
5237;SDS011;2639;49.700;7.962;2022-07-29T05:43:06;6.07;;;5.53;;
5237;SDS011;2639;49.700;7.962;2022-07-29T05:46:17;6.30;;;5.70;;
5237;SDS011;2639;49.700;7.962;2022-07-29T05:49:27;5.83;;;4.60;;
5237;SDS011;2639;49.700;7.962;2022-07-29T05:52:37;5.47;;;4.67;;
5237;SDS011;2639;49.700;7.962;2022-07-29T05:55:47;6.80;;;6.07;;
5237;SDS011;2639;49.700;7.962;2022-07-29T05:58:57;5.63;;;4.37;;
5237;SDS011;2639;49.700;7.962;2022-07-29T06:02:11;4.87;;;4.43;;
5237;SDS011;2639;49.700;7.962;2022-07-29T06:05:20;4.77;;;4.17;;
5237;SDS011;2639;49.700;7.962;2022-07-29T06:08:32;7.23;;;5.60;;
5237;SDS011;2639;49.700;7.962;2022-07-29T06:46:23;6.37;;;5.77;;
5237;SDS011;2639;49.700;7.962;2022-07-29T06:49:44;6.50;;;5.63;;
5237;SDS011;2639;49.700;7.962;2022-07-29T06:52:58;6.80;;;6.10;;
5237;SDS011;2639;49.700;7.962;2022-07-29T06:56:08;5.50;;;5.00;;
5237;SDS011;2639;49.700;7.962;2022-07-29T06:59:17;6.60;;;4.83;;
5237;SDS011;2639;49.700;7.962;2022-07-29T07:02:39;6.00;;;5.40;;
5237;SDS011;2639;49.700;7.962;2022-07-29T07:05:48;5.47;;;4.93;;
5237;SDS011;2639;49.700;7.962;2022-07-29T07:08:59;7.13;;;4.50;;
5237;SDS011;2639;49.700;7.962;2022-07-29T07:12:08;5.50;;;4.37;;
5237;SDS011;2639;49.700;7.962;2022-07-29T07:15:18;5.37;;;3.93;;
5237;SDS011;2639;49.700;7.962;2022-07-29T07:18:48;5.93;;;3.97;;
5237;SDS011;2639;49.700;7.962;2022-07-29T07:21:58;4.93;;;4.43;;
5237;SDS011;2639;49.700;7.962;2022-07-29T07:25:08;7.03;;;3.87;;
5237;SDS011;2639;49.700;7.962;2022-07-29T07:28:19;5.03;;;4.23;;
5237;SDS011;2639;49.700;7.962;2022-07-29T07:31:32;4.70;;;3.97;;
5237;SDS011;2639;49.700;7.962;2022-07-29T07:34:43;6.40;;;3.87;;
5237;SDS011;2639;49.700;7.962;2022-07-29T07:37:52;4.63;;;3.90;;
5237;SDS011;2639;49.700;7.962;2022-07-29T07:41:02;5.07;;;3.97;;
5237;SDS011;2639;49.700;7.962;2022-07-29T07:44:12;4.57;;;4.13;;
5237;SDS011;2639;49.700;7.962;2022-07-29T07:47:23;6.00;;;4.10;;
5237;SDS011;2639;49.700;7.962;2022-07-29T07:50:37;6.13;;;3.43;;
5237;SDS011;2639;49.700;7.962;2022-07-29T07:53:46;5.43;;;3.10;;
5237;SDS011;2639;49.700;7.962;2022-07-29T07:57:03;5.60;;;3.63;;
5237;SDS011;2639;49.700;7.962;2022-07-29T08:00:13;7.93;;;3.37;;
5237;SDS011;2639;49.700;7.962;2022-07-29T08:03:24;6.23;;;3.50;;
5237;SDS011;2639;49.700;7.962;2022-07-29T08:06:37;9.23;;;4.67;;
5237;SDS011;2639;49.700;7.962;2022-07-29T08:09:47;5.20;;;3.80;;
5237;SDS011;2639;49.700;7.962;2022-07-29T08:12:56;6.80;;;4.00;;
5237;SDS011;2639;49.700;7.962;2022-07-29T08:16:08;8.73;;;4.20;;
5237;SDS011;2639;49.700;7.962;2022-07-29T08:19:23;10.57;;;4.67;;
5237;SDS011;2639;49.700;7.962;2022-07-29T08:22:33;9.63;;;4.20;;
5237;SDS011;2639;49.700;7.962;2022-07-29T08:25:43;6.83;;;4.07;;
5237;SDS011;2639;49.700;7.962;2022-07-29T08:29:00;4.50;;;3.93;;
5237;SDS011;2639;49.700;7.962;2022-07-29T08:32:09;5.30;;;4.40;;
5237;SDS011;2639;49.700;7.962;2022-07-29T08:35:19;42.20;;;6.90;;
5237;SDS011;2639;49.700;7.962;2022-07-29T08:38:30;6.13;;;3.00;;
5237;SDS011;2639;49.700;7.962;2022-07-29T08:41:40;4.30;;;3.13;;
5237;SDS011;2639;49.700;7.962;2022-07-29T08:45:05;6.90;;;3.40;;
5237;SDS011;2639;49.700;7.962;2022-07-29T08:48:16;2.87;;;2.60;;
5237;SDS011;2639;49.700;7.962;2022-07-29T08:51:28;15.57;;;4.10;;
5237;SDS011;2639;49.700;7.962;2022-07-29T08:54:40;6.27;;;3.13;;
5237;SDS011;2639;49.700;7.962;2022-07-29T08:57:52;7.77;;;3.47;;
5237;SDS011;2639;49.700;7.962;2022-07-29T09:01:04;5.73;;;2.90;;
5237;SDS011;2639;49.700;7.962;2022-07-29T09:04:29;4.97;;;3.20;;
5237;SDS011;2639;49.700;7.962;2022-07-29T09:07:42;4.27;;;3.10;;
5237;SDS011;2639;49.700;7.962;2022-07-29T09:10:54;3.50;;;2.97;;
5237;SDS011;2639;49.700;7.962;2022-07-29T09:14:07;4.37;;;2.80;;
5237;SDS011;2639;49.700;7.962;2022-07-29T09:17:32;3.10;;;2.60;;
5237;SDS011;2639;49.700;7.962;2022-07-29T09:20:50;5.00;;;3.30;;
5237;SDS011;2639;49.700;7.962;2022-07-29T09:24:12;4.83;;;2.97;;
5237;SDS011;2639;49.700;7.962;2022-07-29T09:27:27;5.83;;;3.40;;
5237;SDS011;2639;49.700;7.962;2022-07-29T09:30:39;5.37;;;2.80;;
5237;SDS011;2639;49.700;7.962;2022-07-29T09:33:59;4.23;;;3.00;;
5237;SDS011;2639;49.700;7.962;2022-07-29T09:37:12;6.83;;;2.83;;
5237;SDS011;2639;49.700;7.962;2022-07-29T09:40:38;6.43;;;2.73;;
5237;SDS011;2639;49.700;7.962;2022-07-29T09:43:55;3.30;;;3.00;;
5237;SDS011;2639;49.700;7.962;2022-07-29T09:47:05;5.03;;;3.20;;
5237;SDS011;2639;49.700;7.962;2022-07-29T09:50:21;3.60;;;2.97;;
5237;SDS011;2639;49.700;7.962;2022-07-29T09:53:35;4.90;;;3.13;;
5237;SDS011;2639;49.700;7.962;2022-07-29T09:56:51;2.97;;;2.70;;
5237;SDS011;2639;49.700;7.962;2022-07-29T10:00:07;4.70;;;2.87;;
5237;SDS011;2639;49.700;7.962;2022-07-29T10:03:21;4.93;;;3.10;;
5237;SDS011;2639;49.700;7.962;2022-07-29T10:06:31;4.40;;;2.70;;
5237;SDS011;2639;49.700;7.962;2022-07-29T10:09:49;4.63;;;3.07;;
5237;SDS011;2639;49.700;7.962;2022-07-29T10:13:04;3.63;;;2.50;;
5237;SDS011;2639;49.700;7.962;2022-07-29T10:16:26;6.77;;;2.90;;
5237;SDS011;2639;49.700;7.962;2022-07-29T10:19:40;3.57;;;3.00;;
5237;SDS011;2639;49.700;7.962;2022-07-29T10:22:57;6.47;;;2.70;;
5237;SDS011;2639;49.700;7.962;2022-07-29T10:26:07;3.20;;;2.40;;
5237;SDS011;2639;49.700;7.962;2022-07-29T10:29:20;4.93;;;3.00;;
5237;SDS011;2639;49.700;7.962;2022-07-29T10:32:36;3.87;;;3.10;;
5237;SDS011;2639;49.700;7.962;2022-07-29T10:36:08;5.00;;;2.80;;
5237;SDS011;2639;49.700;7.962;2022-07-29T10:39:35;4.70;;;2.80;;
5237;SDS011;2639;49.700;7.962;2022-07-29T10:42:57;5.03;;;2.87;;
5237;SDS011;2639;49.700;7.962;2022-07-29T10:46:23;5.93;;;2.87;;
5237;SDS011;2639;49.700;7.962;2022-07-29T10:49:35;5.33;;;3.07;;
5237;SDS011;2639;49.700;7.962;2022-07-29T10:52:51;3.60;;;2.70;;
5237;SDS011;2639;49.700;7.962;2022-07-29T10:56:04;6.57;;;2.60;;
5237;SDS011;2639;49.700;7.962;2022-07-29T10:59:34;4.47;;;2.80;;
5237;SDS011;2639;49.700;7.962;2022-07-29T11:02:44;3.33;;;2.87;;
5237;SDS011;2639;49.700;7.962;2022-07-29T11:06:06;4.07;;;3.10;;
5237;SDS011;2639;49.700;7.962;2022-07-29T11:09:17;4.73;;;3.03;;
5237;SDS011;2639;49.700;7.962;2022-07-29T11:12:45;3.40;;;2.80;;
5237;SDS011;2639;49.700;7.962;2022-07-29T11:15:58;3.50;;;2.80;;
5237;SDS011;2639;49.700;7.962;2022-07-29T11:22:41;3.90;;;2.77;;
5237;SDS011;2639;49.700;7.962;2022-07-29T11:29:26;3.00;;;2.70;;
5237;SDS011;2639;49.700;7.962;2022-07-29T11:32:47;7.33;;;3.27;;
5237;SDS011;2639;49.700;7.962;2022-07-29T11:36:07;3.50;;;3.10;;
5237;SDS011;2639;49.700;7.962;2022-07-29T11:39:26;6.00;;;3.03;;
5237;SDS011;2639;49.700;7.962;2022-07-29T11:42:49;5.23;;;3.10;;
5237;SDS011;2639;49.700;7.962;2022-07-29T11:46:02;3.00;;;2.80;;
5237;SDS011;2639;49.700;7.962;2022-07-29T11:49:18;4.40;;;3.30;;
5237;SDS011;2639;49.700;7.962;2022-07-29T11:52:51;4.00;;;3.63;;
5237;SDS011;2639;49.700;7.962;2022-07-29T11:56:08;5.03;;;3.20;;
5237;SDS011;2639;49.700;7.962;2022-07-29T11:59:23;3.23;;;2.93;;
5237;SDS011;2639;49.700;7.962;2022-07-29T12:02:42;35.60;;;7.20;;
5237;SDS011;2639;49.700;7.962;2022-07-29T12:05:56;4.60;;;3.30;;
5237;SDS011;2639;49.700;7.962;2022-07-29T12:09:06;5.70;;;3.20;;
5237;SDS011;2639;49.700;7.962;2022-07-29T12:12:23;3.73;;;2.73;;
5237;SDS011;2639;49.700;7.962;2022-07-29T12:15:33;3.47;;;3.17;;
5237;SDS011;2639;49.700;7.962;2022-07-29T12:18:54;5.70;;;3.27;;
5237;SDS011;2639;49.700;7.962;2022-07-29T12:22:08;3.10;;;2.80;;
5237;SDS011;2639;49.700;7.962;2022-07-29T12:25:21;3.20;;;2.90;;
5237;SDS011;2639;49.700;7.962;2022-07-29T12:28:42;3.90;;;3.17;;
5237;SDS011;2639;49.700;7.962;2022-07-29T12:31:54;3.37;;;2.70;;
5237;SDS011;2639;49.700;7.962;2022-07-29T12:35:08;5.03;;;3.07;;
5237;SDS011;2639;49.700;7.962;2022-07-29T12:38:21;6.13;;;3.37;;
5237;SDS011;2639;49.700;7.962;2022-07-29T12:41:33;5.83;;;3.00;;
5237;SDS011;2639;49.700;7.962;2022-07-29T12:44:46;5.60;;;2.80;;
5237;SDS011;2639;49.700;7.962;2022-07-29T12:47:56;4.40;;;2.60;;
5237;SDS011;2639;49.700;7.962;2022-07-29T12:51:07;6.10;;;2.83;;
5237;SDS011;2639;49.700;7.962;2022-07-29T12:54:18;3.57;;;2.93;;
5237;SDS011;2639;49.700;7.962;2022-07-29T12:57:44;3.37;;;3.03;;
5237;SDS011;2639;49.700;7.962;2022-07-29T13:01:00;2.90;;;2.57;;
5237;SDS011;2639;49.700;7.962;2022-07-29T13:04:24;3.67;;;3.10;;
5237;SDS011;2639;49.700;7.962;2022-07-29T13:07:35;4.37;;;3.10;;
5237;SDS011;2639;49.700;7.962;2022-07-29T13:11:03;3.50;;;2.97;;
5237;SDS011;2639;49.700;7.962;2022-07-29T13:14:30;3.87;;;2.90;;
5237;SDS011;2639;49.700;7.962;2022-07-29T13:17:42;4.70;;;2.70;;
5237;SDS011;2639;49.700;7.962;2022-07-29T13:20:55;3.03;;;2.67;;
5237;SDS011;2639;49.700;7.962;2022-07-29T13:24:06;5.77;;;2.90;;
5237;SDS011;2639;49.700;7.962;2022-07-29T13:27:16;5.43;;;3.03;;
5237;SDS011;2639;49.700;7.962;2022-07-29T13:30:26;4.10;;;2.60;;
5237;SDS011;2639;49.700;7.962;2022-07-29T13:33:38;3.30;;;3.00;;
5237;SDS011;2639;49.700;7.962;2022-07-29T13:36:48;3.03;;;2.47;;
5237;SDS011;2639;49.700;7.962;2022-07-29T13:40:02;3.80;;;3.00;;
5237;SDS011;2639;49.700;7.962;2022-07-29T13:43:12;6.20;;;2.60;;
5237;SDS011;2639;49.700;7.962;2022-07-29T13:46:22;3.27;;;2.47;;
5237;SDS011;2639;49.700;7.962;2022-07-29T13:49:33;3.30;;;2.40;;
5237;SDS011;2639;49.700;7.962;2022-07-29T13:52:43;3.80;;;2.33;;
5237;SDS011;2639;49.700;7.962;2022-07-29T13:55:52;3.13;;;2.47;;
5237;SDS011;2639;49.700;7.962;2022-07-29T13:59:02;2.70;;;2.50;;
5237;SDS011;2639;49.700;7.962;2022-07-29T14:02:12;3.20;;;2.60;;
5237;SDS011;2639;49.700;7.962;2022-07-29T14:05:24;3.97;;;2.40;;
5237;SDS011;2639;49.700;7.962;2022-07-29T14:08:34;2.83;;;2.60;;
5237;SDS011;2639;49.700;7.962;2022-07-29T14:11:46;3.87;;;2.37;;
5237;SDS011;2639;49.700;7.962;2022-07-29T14:14:59;3.83;;;3.00;;
5237;SDS011;2639;49.700;7.962;2022-07-29T14:18:08;4.17;;;2.30;;
5237;SDS011;2639;49.700;7.962;2022-07-29T14:21:19;4.93;;;2.73;;
5237;SDS011;2639;49.700;7.962;2022-07-29T14:24:29;3.20;;;2.37;;
5237;SDS011;2639;49.700;7.962;2022-07-29T14:27:39;3.13;;;2.20;;
5237;SDS011;2639;49.700;7.962;2022-07-29T14:30:49;4.33;;;2.60;;
5237;SDS011;2639;49.700;7.962;2022-07-29T14:34:01;5.07;;;2.40;;
5237;SDS011;2639;49.700;7.962;2022-07-29T14:37:12;4.47;;;2.83;;
5237;SDS011;2639;49.700;7.962;2022-07-29T14:40:24;4.83;;;2.50;;
5237;SDS011;2639;49.700;7.962;2022-07-29T14:43:34;3.70;;;2.87;;
5237;SDS011;2639;49.700;7.962;2022-07-29T14:46:46;2.90;;;2.30;;
5237;SDS011;2639;49.700;7.962;2022-07-29T14:49:56;3.53;;;2.13;;
5237;SDS011;2639;49.700;7.962;2022-07-29T14:53:07;3.33;;;2.30;;
5237;SDS011;2639;49.700;7.962;2022-07-29T14:56:17;5.73;;;2.47;;
5237;SDS011;2639;49.700;7.962;2022-07-29T14:59:44;5.20;;;2.70;;
5237;SDS011;2639;49.700;7.962;2022-07-29T15:02:54;4.30;;;2.20;;
5237;SDS011;2639;49.700;7.962;2022-07-29T15:06:11;5.63;;;2.77;;
5237;SDS011;2639;49.700;7.962;2022-07-29T15:09:24;2.50;;;2.17;;
5237;SDS011;2639;49.700;7.962;2022-07-29T15:12:34;3.37;;;2.20;;
5237;SDS011;2639;49.700;7.962;2022-07-29T15:15:43;4.33;;;2.50;;
5237;SDS011;2639;49.700;7.962;2022-07-29T15:18:53;2.47;;;2.20;;
5237;SDS011;2639;49.700;7.962;2022-07-29T15:22:11;5.00;;;2.60;;
5237;SDS011;2639;49.700;7.962;2022-07-29T15:25:22;3.30;;;2.17;;
5237;SDS011;2639;49.700;7.962;2022-07-29T15:28:32;4.73;;;2.40;;
5237;SDS011;2639;49.700;7.962;2022-07-29T15:31:42;5.57;;;2.30;;
5237;SDS011;2639;49.700;7.962;2022-07-29T15:34:51;3.00;;;1.97;;
5237;SDS011;2639;49.700;7.962;2022-07-29T15:38:01;4.50;;;2.10;;
5237;SDS011;2639;49.700;7.962;2022-07-29T15:41:21;3.90;;;1.90;;
5237;SDS011;2639;49.700;7.962;2022-07-29T15:44:31;2.50;;;1.90;;
5237;SDS011;2639;49.700;7.962;2022-07-29T15:47:40;4.50;;;2.27;;
5237;SDS011;2639;49.700;7.962;2022-07-29T15:50:50;3.90;;;1.80;;
5237;SDS011;2639;49.700;7.962;2022-07-29T15:54:00;3.77;;;1.97;;
5237;SDS011;2639;49.700;7.962;2022-07-29T15:57:14;4.00;;;2.00;;
5237;SDS011;2639;49.700;7.962;2022-07-29T16:00:23;2.80;;;1.80;;
5237;SDS011;2639;49.700;7.962;2022-07-29T16:03:33;4.10;;;2.30;;
5237;SDS011;2639;49.700;7.962;2022-07-29T16:06:43;2.60;;;1.70;;
5237;SDS011;2639;49.700;7.962;2022-07-29T16:09:57;2.73;;;2.03;;
5237;SDS011;2639;49.700;7.962;2022-07-29T16:13:10;2.70;;;2.00;;
5237;SDS011;2639;49.700;7.962;2022-07-29T16:16:37;4.93;;;2.07;;
5237;SDS011;2639;49.700;7.962;2022-07-29T16:19:47;4.70;;;1.70;;
5237;SDS011;2639;49.700;7.962;2022-07-29T16:22:59;2.13;;;1.70;;
5237;SDS011;2639;49.700;7.962;2022-07-29T16:26:08;5.03;;;1.87;;
5237;SDS011;2639;49.700;7.962;2022-07-29T16:29:20;4.17;;;2.00;;
5237;SDS011;2639;49.700;7.962;2022-07-29T16:32:32;2.53;;;2.13;;
5237;SDS011;2639;49.700;7.962;2022-07-29T16:35:42;4.10;;;2.50;;
5237;SDS011;2639;49.700;7.962;2022-07-29T16:38:51;2.47;;;2.27;;
5237;SDS011;2639;49.700;7.962;2022-07-29T16:42:01;3.37;;;2.40;;
5237;SDS011;2639;49.700;7.962;2022-07-29T16:45:14;2.93;;;2.30;;
5237;SDS011;2639;49.700;7.962;2022-07-29T16:48:25;5.67;;;2.47;;
5237;SDS011;2639;49.700;7.962;2022-07-29T16:51:35;4.47;;;1.90;;
5237;SDS011;2639;49.700;7.962;2022-07-29T16:54:44;2.70;;;2.23;;
5237;SDS011;2639;49.700;7.962;2022-07-29T16:57:56;4.17;;;2.50;;
5237;SDS011;2639;49.700;7.962;2022-07-29T17:01:07;4.50;;;2.83;;
5237;SDS011;2639;49.700;7.962;2022-07-29T17:04:23;4.97;;;2.97;;
5237;SDS011;2639;49.700;7.962;2022-07-29T17:07:32;3.70;;;2.80;;
5237;SDS011;2639;49.700;7.962;2022-07-29T17:10:47;3.90;;;2.90;;
5237;SDS011;2639;49.700;7.962;2022-07-29T17:13:59;3.20;;;2.90;;
5237;SDS011;2639;49.700;7.962;2022-07-29T17:17:12;3.07;;;2.87;;
5237;SDS011;2639;49.700;7.962;2022-07-29T17:20:23;3.03;;;2.70;;
5237;SDS011;2639;49.700;7.962;2022-07-29T17:23:34;3.10;;;2.90;;
5237;SDS011;2639;49.700;7.962;2022-07-29T17:26:46;4.10;;;3.00;;
5237;SDS011;2639;49.700;7.962;2022-07-29T17:29:55;3.60;;;3.23;;
5237;SDS011;2639;49.700;7.962;2022-07-29T17:33:06;3.73;;;3.10;;
5237;SDS011;2639;49.700;7.962;2022-07-29T17:36:16;4.67;;;3.03;;
5237;SDS011;2639;49.700;7.962;2022-07-29T17:39:32;3.80;;;3.10;;
5237;SDS011;2639;49.700;7.962;2022-07-29T17:42:43;4.30;;;2.97;;
5237;SDS011;2639;49.700;7.962;2022-07-29T17:45:54;4.13;;;2.90;;
5237;SDS011;2639;49.700;7.962;2022-07-29T17:49:08;3.27;;;2.87;;
5237;SDS011;2639;49.700;7.962;2022-07-29T17:52:18;5.63;;;3.87;;
5237;SDS011;2639;49.700;7.962;2022-07-29T17:55:27;5.17;;;3.10;;
5237;SDS011;2639;49.700;7.962;2022-07-29T17:58:37;3.20;;;2.90;;
5237;SDS011;2639;49.700;7.962;2022-07-29T18:01:46;4.43;;;3.10;;
5237;SDS011;2639;49.700;7.962;2022-07-29T18:04:57;4.33;;;2.93;;
5237;SDS011;2639;49.700;7.962;2022-07-29T18:08:10;5.43;;;3.13;;
5237;SDS011;2639;49.700;7.962;2022-07-29T18:11:19;5.97;;;3.20;;
5237;SDS011;2639;49.700;7.962;2022-07-29T18:14:29;4.20;;;3.20;;
5237;SDS011;2639;49.700;7.962;2022-07-29T18:17:38;3.73;;;3.13;;
5237;SDS011;2639;49.700;7.962;2022-07-29T18:21:06;4.07;;;3.30;;
5237;SDS011;2639;49.700;7.962;2022-07-29T18:24:26;3.50;;;3.20;;
5237;SDS011;2639;49.700;7.962;2022-07-29T18:27:36;4.03;;;3.20;;
5237;SDS011;2639;49.700;7.962;2022-07-29T18:30:48;3.57;;;3.27;;
5237;SDS011;2639;49.700;7.962;2022-07-29T18:33:58;4.97;;;3.30;;
5237;SDS011;2639;49.700;7.962;2022-07-29T18:37:11;8.53;;;3.70;;
5237;SDS011;2639;49.700;7.962;2022-07-29T18:40:20;3.83;;;3.20;;
5237;SDS011;2639;49.700;7.962;2022-07-29T18:43:32;4.30;;;3.50;;
5237;SDS011;2639;49.700;7.962;2022-07-29T18:46:44;6.93;;;3.23;;
5237;SDS011;2639;49.700;7.962;2022-07-29T18:50:03;3.43;;;3.03;;
5237;SDS011;2639;49.700;7.962;2022-07-29T18:53:14;4.63;;;3.67;;
5237;SDS011;2639;49.700;7.962;2022-07-29T18:56:24;8.03;;;4.00;;
5237;SDS011;2639;49.700;7.962;2022-07-29T18:59:33;4.60;;;4.10;;
5237;SDS011;2639;49.700;7.962;2022-07-29T19:02:43;7.90;;;4.90;;
5237;SDS011;2639;49.700;7.962;2022-07-29T19:05:53;5.70;;;5.10;;
5237;SDS011;2639;49.700;7.962;2022-07-29T19:09:04;4.67;;;4.27;;
5237;SDS011;2639;49.700;7.962;2022-07-29T19:12:15;6.70;;;4.23;;
5237;SDS011;2639;49.700;7.962;2022-07-29T19:15:25;6.27;;;5.17;;
5237;SDS011;2639;49.700;7.962;2022-07-29T19:18:34;6.43;;;5.07;;
5237;SDS011;2639;49.700;7.962;2022-07-29T19:21:44;5.27;;;4.77;;
5237;SDS011;2639;49.700;7.962;2022-07-29T19:24:57;5.93;;;5.40;;
5237;SDS011;2639;49.700;7.962;2022-07-29T19:28:09;5.80;;;5.30;;
5237;SDS011;2639;49.700;7.962;2022-07-29T19:31:19;5.20;;;4.70;;
5237;SDS011;2639;49.700;7.962;2022-07-29T19:34:28;5.70;;;5.10;;
5237;SDS011;2639;49.700;7.962;2022-07-29T19:37:38;7.63;;;5.87;;
5237;SDS011;2639;49.700;7.962;2022-07-29T19:40:52;6.27;;;5.73;;
5237;SDS011;2639;49.700;7.962;2022-07-29T19:44:01;7.27;;;6.57;;
5237;SDS011;2639;49.700;7.962;2022-07-29T19:47:13;6.80;;;6.30;;
5237;SDS011;2639;49.700;7.962;2022-07-29T19:50:24;6.87;;;6.30;;
5237;SDS011;2639;49.700;7.962;2022-07-29T19:53:34;6.67;;;6.07;;
5237;SDS011;2639;49.700;7.962;2022-07-29T19:56:45;6.43;;;5.93;;
5237;SDS011;2639;49.700;7.962;2022-07-29T19:59:55;9.00;;;6.83;;
5237;SDS011;2639;49.700;7.962;2022-07-29T20:03:04;7.43;;;6.83;;
5237;SDS011;2639;49.700;7.962;2022-07-29T20:06:17;7.30;;;6.57;;
5237;SDS011;2639;49.700;7.962;2022-07-29T20:09:26;7.30;;;6.47;;
5237;SDS011;2639;49.700;7.962;2022-07-29T20:12:37;6.37;;;5.70;;
5237;SDS011;2639;49.700;7.962;2022-07-29T20:15:53;6.77;;;6.17;;
5237;SDS011;2639;49.700;7.962;2022-07-29T20:19:05;5.97;;;5.47;;
5237;SDS011;2639;49.700;7.962;2022-07-29T20:22:15;7.67;;;6.90;;
5237;SDS011;2639;49.700;7.962;2022-07-29T20:25:28;7.40;;;6.70;;
5237;SDS011;2639;49.700;7.962;2022-07-29T20:28:41;8.57;;;7.23;;
5237;SDS011;2639;49.700;7.962;2022-07-29T20:31:56;7.63;;;6.90;;
5237;SDS011;2639;49.700;7.962;2022-07-29T20:35:07;6.43;;;5.83;;
5237;SDS011;2639;49.700;7.962;2022-07-29T20:38:17;7.43;;;6.83;;
5237;SDS011;2639;49.700;7.962;2022-07-29T20:41:26;7.57;;;6.97;;
5237;SDS011;2639;49.700;7.962;2022-07-29T20:44:37;8.57;;;7.87;;
5237;SDS011;2639;49.700;7.962;2022-07-29T20:47:47;6.93;;;6.33;;
5237;SDS011;2639;49.700;7.962;2022-07-29T20:50:57;7.53;;;6.80;;
5237;SDS011;2639;49.700;7.962;2022-07-29T20:54:07;8.73;;;7.93;;
5237;SDS011;2639;49.700;7.962;2022-07-29T20:57:17;8.30;;;7.60;;
5237;SDS011;2639;49.700;7.962;2022-07-29T21:00:47;8.73;;;6.30;;
5237;SDS011;2639;49.700;7.962;2022-07-29T21:04:02;6.27;;;5.50;;
5237;SDS011;2639;49.700;7.962;2022-07-29T21:07:14;6.33;;;5.73;;
5237;SDS011;2639;49.700;7.962;2022-07-29T21:10:26;7.27;;;6.67;;
5237;SDS011;2639;49.700;7.962;2022-07-29T21:13:39;8.00;;;7.23;;
5237;SDS011;2639;49.700;7.962;2022-07-29T21:16:57;8.60;;;7.80;;
5237;SDS011;2639;49.700;7.962;2022-07-29T21:20:07;7.57;;;6.87;;
5237;SDS011;2639;49.700;7.962;2022-07-29T21:23:17;6.87;;;6.27;;
5237;SDS011;2639;49.700;7.962;2022-07-29T21:26:42;7.90;;;7.13;;
5237;SDS011;2639;49.700;7.962;2022-07-29T21:30:12;8.03;;;7.23;;
5237;SDS011;2639;49.700;7.962;2022-07-29T21:33:23;6.87;;;6.20;;
5237;SDS011;2639;49.700;7.962;2022-07-29T21:36:33;8.07;;;7.47;;
5237;SDS011;2639;49.700;7.962;2022-07-29T21:39:56;7.37;;;6.77;;
5237;SDS011;2639;49.700;7.962;2022-07-29T21:43:05;8.43;;;7.77;;
5237;SDS011;2639;49.700;7.962;2022-07-29T21:46:16;9.17;;;8.37;;
5237;SDS011;2639;49.700;7.962;2022-07-29T21:49:32;7.50;;;6.80;;
5237;SDS011;2639;49.700;7.962;2022-07-29T21:52:44;7.00;;;6.30;;
5237;SDS011;2639;49.700;7.962;2022-07-29T21:55:57;7.60;;;6.90;;
5237;SDS011;2639;49.700;7.962;2022-07-29T21:59:09;9.23;;;8.37;;
5237;SDS011;2639;49.700;7.962;2022-07-29T22:02:23;8.90;;;8.23;;
5237;SDS011;2639;49.700;7.962;2022-07-29T22:05:34;8.67;;;7.87;;
5237;SDS011;2639;49.700;7.962;2022-07-29T22:08:45;7.83;;;6.83;;
5237;SDS011;2639;49.700;7.962;2022-07-29T22:11:55;8.10;;;7.40;;
5237;SDS011;2639;49.700;7.962;2022-07-29T22:15:12;7.17;;;6.57;;
5237;SDS011;2639;49.700;7.962;2022-07-29T22:18:26;8.67;;;7.50;;
5237;SDS011;2639;49.700;7.962;2022-07-29T22:21:37;7.53;;;6.77;;
5237;SDS011;2639;49.700;7.962;2022-07-29T22:24:47;7.23;;;6.70;;
5237;SDS011;2639;49.700;7.962;2022-07-29T22:27:57;7.10;;;6.50;;
5237;SDS011;2639;49.700;7.962;2022-07-29T22:31:08;6.40;;;5.80;;
5237;SDS011;2639;49.700;7.962;2022-07-29T22:34:18;7.00;;;6.33;;
5237;SDS011;2639;49.700;7.962;2022-07-29T22:37:32;7.43;;;6.57;;
5237;SDS011;2639;49.700;7.962;2022-07-29T22:40:41;8.83;;;8.20;;
5237;SDS011;2639;49.700;7.962;2022-07-29T22:43:51;9.90;;;8.93;;
5237;SDS011;2639;49.700;7.962;2022-07-29T22:47:01;9.00;;;8.23;;
5237;SDS011;2639;49.700;7.962;2022-07-29T22:50:12;9.20;;;8.40;;
5237;SDS011;2639;49.700;7.962;2022-07-29T22:53:25;9.40;;;8.50;;
5237;SDS011;2639;49.700;7.962;2022-07-29T22:56:34;7.73;;;7.13;;
5237;SDS011;2639;49.700;7.962;2022-07-29T22:59:44;8.67;;;7.77;;
